sensor_id;sensor_type;location;lat;lon;timestamp;P1;durP1;ratioP1;P2;durP2;ratioP2
64851;SDS011;56050;55.558;-4.644;2023-05-07T00:01:52;9.23;;;4.47;;
64851;SDS011;56050;55.558;-4.644;2023-05-07T00:04:18;9.05;;;5.88;;
64851;SDS011;56050;55.558;-4.644;2023-05-07T00:06:44;9.60;;;5.78;;
64851;SDS011;56050;55.558;-4.644;2023-05-07T00:09:09;9.77;;;6.70;;
64851;SDS011;56050;55.558;-4.644;2023-05-07T00:11:37;8.75;;;3.88;;
64851;SDS011;56050;55.558;-4.644;2023-05-07T00:14:03;10.25;;;5.85;;
64851;SDS011;56050;55.558;-4.644;2023-05-07T00:16:29;12.65;;;5.03;;
64851;SDS011;56050;55.558;-4.644;2023-05-07T00:18:55;9.60;;;4.40;;
64851;SDS011;56050;55.558;-4.644;2023-05-07T00:21:20;12.93;;;5.20;;
64851;SDS011;56050;55.558;-4.644;2023-05-07T00:23:46;9.77;;;4.53;;
64851;SDS011;56050;55.558;-4.644;2023-05-07T00:26:12;12.18;;;5.00;;
64851;SDS011;56050;55.558;-4.644;2023-05-07T00:28:39;9.90;;;4.30;;
64851;SDS011;56050;55.558;-4.644;2023-05-07T00:31:05;12.05;;;4.10;;
64851;SDS011;56050;55.558;-4.644;2023-05-07T00:33:30;10.77;;;4.55;;
64851;SDS011;56050;55.558;-4.644;2023-05-07T00:35:56;10.18;;;4.75;;
64851;SDS011;56050;55.558;-4.644;2023-05-07T00:38:21;12.65;;;4.95;;
64851;SDS011;56050;55.558;-4.644;2023-05-07T00:40:47;12.18;;;5.43;;
64851;SDS011;56050;55.558;-4.644;2023-05-07T00:43:12;14.68;;;6.57;;
64851;SDS011;56050;55.558;-4.644;2023-05-07T00:45:38;10.32;;;4.60;;
64851;SDS011;56050;55.558;-4.644;2023-05-07T00:48:03;11.32;;;4.63;;
64851;SDS011;56050;55.558;-4.644;2023-05-07T00:50:30;10.65;;;4.85;;
64851;SDS011;56050;55.558;-4.644;2023-05-07T00:52:57;12.40;;;6.03;;
64851;SDS011;56050;55.558;-4.644;2023-05-07T00:55:24;11.98;;;5.28;;
64851;SDS011;56050;55.558;-4.644;2023-05-07T00:57:50;12.63;;;6.38;;
64851;SDS011;56050;55.558;-4.644;2023-05-07T01:00:16;12.93;;;5.05;;
64851;SDS011;56050;55.558;-4.644;2023-05-07T01:02:43;13.68;;;5.15;;
64851;SDS011;56050;55.558;-4.644;2023-05-07T01:05:10;11.15;;;4.18;;
64851;SDS011;56050;55.558;-4.644;2023-05-07T01:07:38;14.70;;;4.90;;
64851;SDS011;56050;55.558;-4.644;2023-05-07T01:10:06;11.60;;;5.15;;
64851;SDS011;56050;55.558;-4.644;2023-05-07T01:12:32;12.93;;;6.07;;
64851;SDS011;56050;55.558;-4.644;2023-05-07T01:14:59;11.57;;;6.50;;
64851;SDS011;56050;55.558;-4.644;2023-05-07T01:17:25;13.07;;;6.85;;
64851;SDS011;56050;55.558;-4.644;2023-05-07T01:19:50;16.42;;;7.15;;
64851;SDS011;56050;55.558;-4.644;2023-05-07T01:22:22;15.40;;;6.15;;
64851;SDS011;56050;55.558;-4.644;2023-05-07T01:24:56;13.82;;;5.63;;
64851;SDS011;56050;55.558;-4.644;2023-05-07T01:27:22;16.67;;;7.95;;
64851;SDS011;56050;55.558;-4.644;2023-05-07T01:29:47;16.95;;;5.90;;
64851;SDS011;56050;55.558;-4.644;2023-05-07T01:32:13;12.00;;;5.20;;
64851;SDS011;56050;55.558;-4.644;2023-05-07T01:34:41;14.20;;;6.45;;
64851;SDS011;56050;55.558;-4.644;2023-05-07T01:37:09;13.70;;;5.20;;
64851;SDS011;56050;55.558;-4.644;2023-05-07T01:39:35;15.57;;;6.68;;
64851;SDS011;56050;55.558;-4.644;2023-05-07T01:42:04;11.75;;;4.25;;
64851;SDS011;56050;55.558;-4.644;2023-05-07T01:44:29;13.32;;;5.90;;
64851;SDS011;56050;55.558;-4.644;2023-05-07T05:14:50;6.68;;;3.00;;
64851;SDS011;56050;55.558;-4.644;2023-05-07T05:17:15;9.60;;;5.55;;
64851;SDS011;56050;55.558;-4.644;2023-05-07T05:19:41;8.35;;;3.90;;
64851;SDS011;56050;55.558;-4.644;2023-05-07T05:22:06;8.20;;;4.60;;
64851;SDS011;56050;55.558;-4.644;2023-05-07T05:24:32;9.30;;;3.78;;
64851;SDS011;56050;55.558;-4.644;2023-05-07T05:26:57;9.60;;;5.97;;
64851;SDS011;56050;55.558;-4.644;2023-05-07T05:29:24;8.18;;;5.05;;
64851;SDS011;56050;55.558;-4.644;2023-05-07T05:31:50;8.57;;;5.40;;
64851;SDS011;56050;55.558;-4.644;2023-05-07T05:34:15;9.15;;;4.93;;
64851;SDS011;56050;55.558;-4.644;2023-05-07T05:36:42;12.07;;;6.20;;
64851;SDS011;56050;55.558;-4.644;2023-05-07T05:39:08;12.10;;;4.07;;
64851;SDS011;56050;55.558;-4.644;2023-05-07T05:41:34;10.00;;;4.25;;
64851;SDS011;56050;55.558;-4.644;2023-05-07T05:43:59;10.27;;;3.47;;
64851;SDS011;56050;55.558;-4.644;2023-05-07T05:46:24;10.15;;;5.65;;
64851;SDS011;56050;55.558;-4.644;2023-05-07T05:48:50;8.77;;;5.18;;
64851;SDS011;56050;55.558;-4.644;2023-05-07T05:51:15;8.20;;;3.85;;
64851;SDS011;56050;55.558;-4.644;2023-05-07T05:53:41;11.45;;;6.43;;
64851;SDS011;56050;55.558;-4.644;2023-05-07T05:56:06;8.23;;;5.18;;
64851;SDS011;56050;55.558;-4.644;2023-05-07T05:58:32;10.63;;;6.50;;
64851;SDS011;56050;55.558;-4.644;2023-05-07T06:00:57;11.43;;;5.43;;
64851;SDS011;56050;55.558;-4.644;2023-05-07T06:03:23;9.95;;;5.00;;
64851;SDS011;56050;55.558;-4.644;2023-05-07T06:05:49;11.15;;;3.92;;
64851;SDS011;56050;55.558;-4.644;2023-05-07T06:08:14;11.27;;;4.57;;
64851;SDS011;56050;55.558;-4.644;2023-05-07T06:10:40;9.60;;;5.30;;
64851;SDS011;56050;55.558;-4.644;2023-05-07T06:13:06;11.57;;;5.70;;
64851;SDS011;56050;55.558;-4.644;2023-05-07T06:15:32;7.85;;;3.05;;
64851;SDS011;56050;55.558;-4.644;2023-05-07T06:17:58;7.25;;;3.17;;
64851;SDS011;56050;55.558;-4.644;2023-05-07T06:20:23;6.32;;;2.47;;
64851;SDS011;56050;55.558;-4.644;2023-05-07T06:22:49;7.82;;;3.22;;
64851;SDS011;56050;55.558;-4.644;2023-05-07T06:25:14;6.72;;;2.35;;
64851;SDS011;56050;55.558;-4.644;2023-05-07T06:27:40;6.03;;;4.00;;
64851;SDS011;56050;55.558;-4.644;2023-05-07T06:30:06;5.88;;;3.78;;
64851;SDS011;56050;55.558;-4.644;2023-05-07T06:32:32;6.68;;;2.65;;
64851;SDS011;56050;55.558;-4.644;2023-05-07T06:34:57;4.85;;;2.17;;
64851;SDS011;56050;55.558;-4.644;2023-05-07T06:37:23;7.60;;;4.35;;
64851;SDS011;56050;55.558;-4.644;2023-05-07T06:39:48;5.45;;;2.55;;
64851;SDS011;56050;55.558;-4.644;2023-05-07T06:42:14;7.15;;;4.03;;
64851;SDS011;56050;55.558;-4.644;2023-05-07T06:44:40;6.65;;;4.22;;
64851;SDS011;56050;55.558;-4.644;2023-05-07T06:47:05;8.82;;;2.95;;
64851;SDS011;56050;55.558;-4.644;2023-05-07T06:49:32;6.63;;;2.65;;
64851;SDS011;56050;55.558;-4.644;2023-05-07T06:51:58;8.90;;;4.35;;
64851;SDS011;56050;55.558;-4.644;2023-05-07T06:54:23;8.38;;;3.05;;
64851;SDS011;56050;55.558;-4.644;2023-05-07T06:56:49;6.40;;;2.85;;
64851;SDS011;56050;55.558;-4.644;2023-05-07T06:59:15;5.97;;;2.83;;
64851;SDS011;56050;55.558;-4.644;2023-05-07T07:01:40;6.15;;;2.47;;
64851;SDS011;56050;55.558;-4.644;2023-05-07T07:04:06;6.50;;;4.57;;
64851;SDS011;56050;55.558;-4.644;2023-05-07T07:06:32;6.90;;;2.35;;
64851;SDS011;56050;55.558;-4.644;2023-05-07T07:08:58;6.10;;;2.50;;
64851;SDS011;56050;55.558;-4.644;2023-05-07T07:11:24;6.55;;;3.00;;
64851;SDS011;56050;55.558;-4.644;2023-05-07T07:13:49;8.18;;;2.83;;
64851;SDS011;56050;55.558;-4.644;2023-05-07T07:16:15;5.78;;;2.80;;
64851;SDS011;56050;55.558;-4.644;2023-05-07T07:18:41;6.68;;;2.65;;
64851;SDS011;56050;55.558;-4.644;2023-05-07T07:21:06;5.90;;;2.63;;
64851;SDS011;56050;55.558;-4.644;2023-05-07T07:23:35;9.70;;;2.90;;
64851;SDS011;56050;55.558;-4.644;2023-05-07T07:26:01;6.40;;;3.05;;
64851;SDS011;56050;55.558;-4.644;2023-05-07T07:28:26;8.43;;;2.85;;
64851;SDS011;56050;55.558;-4.644;2023-05-07T07:30:51;7.22;;;2.92;;
64851;SDS011;56050;55.558;-4.644;2023-05-07T07:33:17;8.25;;;2.85;;
64851;SDS011;56050;55.558;-4.644;2023-05-07T07:35:42;8.30;;;3.15;;
64851;SDS011;56050;55.558;-4.644;2023-05-07T07:38:08;6.80;;;2.83;;
64851;SDS011;56050;55.558;-4.644;2023-05-07T07:40:36;6.07;;;3.22;;
64851;SDS011;56050;55.558;-4.644;2023-05-07T07:43:02;5.55;;;2.60;;
64851;SDS011;56050;55.558;-4.644;2023-05-07T07:45:27;8.70;;;3.55;;
64851;SDS011;56050;55.558;-4.644;2023-05-07T07:47:54;7.15;;;3.78;;
64851;SDS011;56050;55.558;-4.644;2023-05-07T07:50:19;6.28;;;2.97;;
64851;SDS011;56050;55.558;-4.644;2023-05-07T07:52:45;6.85;;;3.10;;
64851;SDS011;56050;55.558;-4.644;2023-05-07T07:55:10;6.97;;;3.33;;
64851;SDS011;56050;55.558;-4.644;2023-05-07T07:57:37;8.68;;;3.13;;
64851;SDS011;56050;55.558;-4.644;2023-05-07T08:00:02;8.73;;;2.88;;
64851;SDS011;56050;55.558;-4.644;2023-05-07T08:02:28;7.63;;;3.63;;
64851;SDS011;56050;55.558;-4.644;2023-05-07T08:04:55;9.88;;;3.33;;
64851;SDS011;56050;55.558;-4.644;2023-05-07T08:07:21;7.45;;;4.18;;
64851;SDS011;56050;55.558;-4.644;2023-05-07T08:09:47;8.18;;;2.78;;
64851;SDS011;56050;55.558;-4.644;2023-05-07T08:12:13;6.50;;;3.08;;
64851;SDS011;56050;55.558;-4.644;2023-05-07T08:14:39;9.43;;;4.57;;
64851;SDS011;56050;55.558;-4.644;2023-05-07T08:17:04;9.80;;;3.13;;
64851;SDS011;56050;55.558;-4.644;2023-05-07T08:19:30;5.55;;;3.03;;
64851;SDS011;56050;55.558;-4.644;2023-05-07T08:21:55;7.88;;;2.55;;
64851;SDS011;56050;55.558;-4.644;2023-05-07T08:24:21;7.95;;;2.70;;
64851;SDS011;56050;55.558;-4.644;2023-05-07T08:26:46;8.75;;;2.88;;
64851;SDS011;56050;55.558;-4.644;2023-05-07T08:29:11;7.00;;;2.85;;
64851;SDS011;56050;55.558;-4.644;2023-05-07T08:31:37;9.65;;;3.17;;
64851;SDS011;56050;55.558;-4.644;2023-05-07T08:34:06;7.57;;;2.42;;
64851;SDS011;56050;55.558;-4.644;2023-05-07T08:36:31;6.25;;;2.85;;
64851;SDS011;56050;55.558;-4.644;2023-05-07T08:38:57;8.32;;;2.78;;
64851;SDS011;56050;55.558;-4.644;2023-05-07T08:41:22;8.20;;;3.42;;
64851;SDS011;56050;55.558;-4.644;2023-05-07T08:43:48;10.50;;;2.85;;
64851;SDS011;56050;55.558;-4.644;2023-05-07T08:46:22;9.15;;;2.63;;
64851;SDS011;56050;55.558;-4.644;2023-05-07T08:48:48;9.45;;;4.15;;
64851;SDS011;56050;55.558;-4.644;2023-05-07T08:51:18;10.98;;;2.88;;
64851;SDS011;56050;55.558;-4.644;2023-05-07T08:53:45;11.15;;;3.55;;
64851;SDS011;56050;55.558;-4.644;2023-05-07T08:56:13;7.68;;;2.60;;
64851;SDS011;56050;55.558;-4.644;2023-05-07T08:58:40;8.82;;;3.33;;
64851;SDS011;56050;55.558;-4.644;2023-05-07T09:01:09;6.70;;;2.88;;
64851;SDS011;56050;55.558;-4.644;2023-05-07T09:03:38;9.02;;;3.28;;
64851;SDS011;56050;55.558;-4.644;2023-05-07T09:06:04;6.45;;;3.70;;
64851;SDS011;56050;55.558;-4.644;2023-05-07T09:08:31;6.50;;;2.05;;
64851;SDS011;56050;55.558;-4.644;2023-05-07T09:10:57;7.15;;;2.75;;
64851;SDS011;56050;55.558;-4.644;2023-05-07T09:13:23;6.65;;;2.28;;
64851;SDS011;56050;55.558;-4.644;2023-05-07T09:15:49;6.57;;;2.33;;
64851;SDS011;56050;55.558;-4.644;2023-05-07T09:18:15;8.27;;;3.75;;
64851;SDS011;56050;55.558;-4.644;2023-05-07T09:20:40;10.80;;;3.20;;
64851;SDS011;56050;55.558;-4.644;2023-05-07T09:23:06;7.72;;;3.25;;
64851;SDS011;56050;55.558;-4.644;2023-05-07T09:25:33;11.63;;;4.13;;
64851;SDS011;56050;55.558;-4.644;2023-05-07T09:28:00;9.35;;;2.65;;
64851;SDS011;56050;55.558;-4.644;2023-05-07T09:30:32;8.38;;;2.53;;
64851;SDS011;56050;55.558;-4.644;2023-05-07T09:33:00;9.20;;;2.92;;
64851;SDS011;56050;55.558;-4.644;2023-05-07T09:35:26;7.13;;;3.00;;
64851;SDS011;56050;55.558;-4.644;2023-05-07T09:37:53;6.68;;;4.72;;
64851;SDS011;56050;55.558;-4.644;2023-05-07T09:40:21;7.60;;;3.90;;
64851;SDS011;56050;55.558;-4.644;2023-05-07T09:42:48;7.60;;;2.85;;
64851;SDS011;56050;55.558;-4.644;2023-05-07T09:45:14;5.88;;;2.45;;
64851;SDS011;56050;55.558;-4.644;2023-05-07T10:15:23;5.00;;;2.27;;
64851;SDS011;56050;55.558;-4.644;2023-05-07T10:17:50;8.38;;;3.10;;
64851;SDS011;56050;55.558;-4.644;2023-05-07T10:20:18;7.60;;;1.98;;
64851;SDS011;56050;55.558;-4.644;2023-05-07T10:22:46;5.60;;;2.88;;
64851;SDS011;56050;55.558;-4.644;2023-05-07T10:25:25;5.50;;;2.63;;
64851;SDS011;56050;55.558;-4.644;2023-05-07T10:27:54;8.13;;;2.58;;
64851;SDS011;56050;55.558;-4.644;2023-05-07T10:30:26;6.85;;;2.63;;
64851;SDS011;56050;55.558;-4.644;2023-05-07T10:33:08;5.95;;;2.80;;
64851;SDS011;56050;55.558;-4.644;2023-05-07T10:35:39;7.68;;;3.05;;
64851;SDS011;56050;55.558;-4.644;2023-05-07T10:38:07;8.43;;;2.30;;
64851;SDS011;56050;55.558;-4.644;2023-05-07T10:40:33;6.80;;;2.90;;
64851;SDS011;56050;55.558;-4.644;2023-05-07T10:43:03;5.93;;;2.83;;
64851;SDS011;56050;55.558;-4.644;2023-05-07T10:45:30;8.30;;;2.85;;
64851;SDS011;56050;55.558;-4.644;2023-05-07T10:48:12;6.03;;;2.20;;
64851;SDS011;56050;55.558;-4.644;2023-05-07T10:50:40;6.38;;;2.80;;
64851;SDS011;56050;55.558;-4.644;2023-05-07T10:55:48;6.70;;;3.08;;
64851;SDS011;56050;55.558;-4.644;2023-05-07T11:00:46;5.93;;;2.70;;
64851;SDS011;56050;55.558;-4.644;2023-05-07T11:03:13;4.80;;;2.92;;
64851;SDS011;56050;55.558;-4.644;2023-05-07T11:05:40;7.63;;;2.95;;
64851;SDS011;56050;55.558;-4.644;2023-05-07T11:08:06;5.82;;;2.72;;
64851;SDS011;56050;55.558;-4.644;2023-05-07T11:10:49;6.47;;;2.22;;
64851;SDS011;56050;55.558;-4.644;2023-05-07T11:13:18;6.05;;;2.55;;
64851;SDS011;56050;55.558;-4.644;2023-05-07T11:16:04;7.53;;;1.83;;
64851;SDS011;56050;55.558;-4.644;2023-05-07T11:18:48;7.07;;;3.17;;
64851;SDS011;56050;55.558;-4.644;2023-05-07T11:21:33;7.38;;;2.38;;
64851;SDS011;56050;55.558;-4.644;2023-05-07T11:24:01;7.60;;;2.55;;
64851;SDS011;56050;55.558;-4.644;2023-05-07T11:26:29;6.28;;;2.03;;
64851;SDS011;56050;55.558;-4.644;2023-05-07T11:28:56;7.85;;;2.85;;
64851;SDS011;56050;55.558;-4.644;2023-05-07T11:31:23;6.32;;;2.65;;
64851;SDS011;56050;55.558;-4.644;2023-05-07T11:33:51;6.03;;;2.33;;
64851;SDS011;56050;55.558;-4.644;2023-05-07T11:36:18;7.80;;;2.45;;
64851;SDS011;56050;55.558;-4.644;2023-05-07T11:38:45;9.43;;;3.28;;
64851;SDS011;56050;55.558;-4.644;2023-05-07T11:41:10;6.53;;;2.97;;
64851;SDS011;56050;55.558;-4.644;2023-05-07T11:43:36;5.82;;;2.47;;
64851;SDS011;56050;55.558;-4.644;2023-05-07T11:46:08;9.05;;;3.30;;
64851;SDS011;56050;55.558;-4.644;2023-05-07T11:48:35;6.40;;;2.55;;
64851;SDS011;56050;55.558;-4.644;2023-05-07T11:51:02;7.15;;;2.53;;
64851;SDS011;56050;55.558;-4.644;2023-05-07T11:53:35;7.45;;;2.33;;
64851;SDS011;56050;55.558;-4.644;2023-05-07T11:56:11;8.63;;;2.38;;
64851;SDS011;56050;55.558;-4.644;2023-05-07T11:58:38;10.02;;;3.30;;
64851;SDS011;56050;55.558;-4.644;2023-05-07T12:01:07;8.93;;;2.88;;
64851;SDS011;56050;55.558;-4.644;2023-05-07T12:03:34;8.45;;;3.47;;
64851;SDS011;56050;55.558;-4.644;2023-05-07T12:06:00;7.78;;;3.63;;
64851;SDS011;56050;55.558;-4.644;2023-05-07T12:08:25;7.70;;;2.30;;
64851;SDS011;56050;55.558;-4.644;2023-05-07T12:10:51;9.05;;;3.00;;
64851;SDS011;56050;55.558;-4.644;2023-05-07T12:13:20;7.15;;;3.28;;
64851;SDS011;56050;55.558;-4.644;2023-05-07T12:15:51;8.70;;;2.83;;
64851;SDS011;56050;55.558;-4.644;2023-05-07T12:18:17;7.97;;;2.58;;
64851;SDS011;56050;55.558;-4.644;2023-05-07T12:20:43;5.57;;;2.72;;
64851;SDS011;56050;55.558;-4.644;2023-05-07T12:23:10;6.82;;;2.50;;
64851;SDS011;56050;55.558;-4.644;2023-05-07T12:25:36;4.18;;;1.67;;
64851;SDS011;56050;55.558;-4.644;2023-05-07T12:28:03;6.03;;;2.03;;
64851;SDS011;56050;55.558;-4.644;2023-05-07T12:30:32;6.18;;;2.47;;
64851;SDS011;56050;55.558;-4.644;2023-05-07T12:33:01;5.70;;;2.75;;
64851;SDS011;56050;55.558;-4.644;2023-05-07T12:35:30;5.57;;;2.17;;
64851;SDS011;56050;55.558;-4.644;2023-05-07T12:37:57;5.13;;;2.63;;
64851;SDS011;56050;55.558;-4.644;2023-05-07T12:40:33;5.35;;;2.13;;
64851;SDS011;56050;55.558;-4.644;2023-05-07T12:43:01;5.13;;;2.03;;
64851;SDS011;56050;55.558;-4.644;2023-05-07T12:45:27;5.65;;;2.10;;
64851;SDS011;56050;55.558;-4.644;2023-05-07T12:47:52;5.70;;;2.22;;
64851;SDS011;56050;55.558;-4.644;2023-05-07T12:50:17;6.13;;;2.17;;
64851;SDS011;56050;55.558;-4.644;2023-05-07T12:52:49;5.03;;;2.45;;
64851;SDS011;56050;55.558;-4.644;2023-05-07T12:55:15;9.60;;;2.03;;
64851;SDS011;56050;55.558;-4.644;2023-05-07T12:57:41;6.13;;;2.90;;
64851;SDS011;56050;55.558;-4.644;2023-05-07T13:00:08;6.57;;;2.20;;
64851;SDS011;56050;55.558;-4.644;2023-05-07T13:02:34;6.07;;;2.00;;
64851;SDS011;56050;55.558;-4.644;2023-05-07T13:05:03;5.65;;;2.35;;
64851;SDS011;56050;55.558;-4.644;2023-05-07T13:07:29;7.00;;;3.22;;
64851;SDS011;56050;55.558;-4.644;2023-05-07T13:09:54;5.20;;;2.25;;
64851;SDS011;56050;55.558;-4.644;2023-05-07T13:12:20;5.45;;;2.03;;
64851;SDS011;56050;55.558;-4.644;2023-05-07T13:14:45;8.75;;;2.05;;
64851;SDS011;56050;55.558;-4.644;2023-05-07T13:17:11;6.15;;;2.03;;
64851;SDS011;56050;55.558;-4.644;2023-05-07T13:19:36;6.13;;;1.92;;
64851;SDS011;56050;55.558;-4.644;2023-05-07T13:22:05;5.95;;;2.45;;
64851;SDS011;56050;55.558;-4.644;2023-05-07T13:24:30;5.78;;;2.45;;
64851;SDS011;56050;55.558;-4.644;2023-05-07T13:26:56;4.90;;;2.10;;
64851;SDS011;56050;55.558;-4.644;2023-05-07T13:29:21;4.55;;;1.75;;
64851;SDS011;56050;55.558;-4.644;2023-05-07T13:31:57;5.07;;;1.70;;
64851;SDS011;56050;55.558;-4.644;2023-05-07T13:34:22;6.90;;;2.50;;
64851;SDS011;56050;55.558;-4.644;2023-05-07T13:36:48;7.40;;;1.80;;
64851;SDS011;56050;55.558;-4.644;2023-05-07T13:39:13;4.32;;;2.45;;
64851;SDS011;56050;55.558;-4.644;2023-05-07T13:41:39;6.53;;;2.55;;
64851;SDS011;56050;55.558;-4.644;2023-05-07T13:44:04;5.32;;;1.65;;
64851;SDS011;56050;55.558;-4.644;2023-05-07T13:46:30;5.22;;;2.28;;
64851;SDS011;56050;55.558;-4.644;2023-05-07T13:48:56;5.75;;;2.03;;
64851;SDS011;56050;55.558;-4.644;2023-05-07T13:51:21;6.50;;;2.15;;
64851;SDS011;56050;55.558;-4.644;2023-05-07T13:53:47;5.57;;;2.25;;
64851;SDS011;56050;55.558;-4.644;2023-05-07T13:56:14;6.22;;;1.77;;
64851;SDS011;56050;55.558;-4.644;2023-05-07T13:58:39;6.72;;;2.00;;
64851;SDS011;56050;55.558;-4.644;2023-05-07T14:01:05;5.78;;;2.42;;
64851;SDS011;56050;55.558;-4.644;2023-05-07T14:03:30;6.75;;;2.35;;
64851;SDS011;56050;55.558;-4.644;2023-05-07T14:05:58;5.53;;;1.92;;
64851;SDS011;56050;55.558;-4.644;2023-05-07T14:08:25;6.10;;;1.85;;
64851;SDS011;56050;55.558;-4.644;2023-05-07T14:10:50;4.90;;;1.95;;
64851;SDS011;56050;55.558;-4.644;2023-05-07T14:13:16;5.35;;;1.70;;
64851;SDS011;56050;55.558;-4.644;2023-05-07T14:15:42;6.43;;;2.10;;
64851;SDS011;56050;55.558;-4.644;2023-05-07T14:18:11;5.68;;;2.35;;
64851;SDS011;56050;55.558;-4.644;2023-05-07T14:20:37;5.00;;;2.22;;
64851;SDS011;56050;55.558;-4.644;2023-05-07T14:23:03;6.57;;;2.45;;
64851;SDS011;56050;55.558;-4.644;2023-05-07T14:25:28;5.47;;;2.45;;
64851;SDS011;56050;55.558;-4.644;2023-05-07T14:27:53;6.93;;;2.65;;
64851;SDS011;56050;55.558;-4.644;2023-05-07T14:30:19;5.10;;;1.98;;
64851;SDS011;56050;55.558;-4.644;2023-05-07T14:32:44;6.45;;;2.47;;
64851;SDS011;56050;55.558;-4.644;2023-05-07T14:35:10;4.70;;;2.70;;
64851;SDS011;56050;55.558;-4.644;2023-05-07T14:37:35;6.70;;;2.30;;
64851;SDS011;56050;55.558;-4.644;2023-05-07T14:40:01;4.07;;;2.25;;
64851;SDS011;56050;55.558;-4.644;2023-05-07T14:42:26;5.47;;;2.35;;
64851;SDS011;56050;55.558;-4.644;2023-05-07T14:44:52;5.60;;;1.98;;
64851;SDS011;56050;55.558;-4.644;2023-05-07T14:47:18;7.30;;;3.08;;
64851;SDS011;56050;55.558;-4.644;2023-05-07T14:49:43;5.10;;;2.70;;
64851;SDS011;56050;55.558;-4.644;2023-05-07T14:52:08;6.30;;;2.83;;
64851;SDS011;56050;55.558;-4.644;2023-05-07T14:54:35;5.05;;;2.15;;
64851;SDS011;56050;55.558;-4.644;2023-05-07T14:57:01;6.93;;;3.00;;
64851;SDS011;56050;55.558;-4.644;2023-05-07T14:59:27;8.98;;;2.33;;
64851;SDS011;56050;55.558;-4.644;2023-05-07T15:01:53;6.53;;;3.42;;
64851;SDS011;56050;55.558;-4.644;2023-05-07T15:04:19;6.57;;;2.92;;
64851;SDS011;56050;55.558;-4.644;2023-05-07T15:06:44;6.63;;;2.95;;
64851;SDS011;56050;55.558;-4.644;2023-05-07T15:09:11;6.68;;;2.33;;
64851;SDS011;56050;55.558;-4.644;2023-05-07T15:11:37;6.35;;;2.83;;
64851;SDS011;56050;55.558;-4.644;2023-05-07T15:14:02;5.35;;;2.53;;
64851;SDS011;56050;55.558;-4.644;2023-05-07T15:16:28;5.50;;;2.42;;
64851;SDS011;56050;55.558;-4.644;2023-05-07T15:18:53;7.38;;;2.15;;
64851;SDS011;56050;55.558;-4.644;2023-05-07T15:21:19;7.97;;;3.08;;
64851;SDS011;56050;55.558;-4.644;2023-05-07T15:23:45;7.05;;;2.60;;
64851;SDS011;56050;55.558;-4.644;2023-05-07T15:26:11;6.55;;;2.15;;
64851;SDS011;56050;55.558;-4.644;2023-05-07T15:28:36;5.97;;;2.85;;
64851;SDS011;56050;55.558;-4.644;2023-05-07T15:31:03;7.10;;;2.75;;
64851;SDS011;56050;55.558;-4.644;2023-05-07T15:33:28;6.25;;;1.77;;
64851;SDS011;56050;55.558;-4.644;2023-05-07T15:35:54;4.65;;;1.90;;
64851;SDS011;56050;55.558;-4.644;2023-05-07T15:38:23;5.30;;;1.83;;
64851;SDS011;56050;55.558;-4.644;2023-05-07T15:40:49;4.97;;;2.15;;
64851;SDS011;56050;55.558;-4.644;2023-05-07T15:43:14;4.45;;;1.77;;
64851;SDS011;56050;55.558;-4.644;2023-05-07T15:45:40;4.00;;;1.05;;
64851;SDS011;56050;55.558;-4.644;2023-05-07T15:48:07;4.93;;;1.63;;
64851;SDS011;56050;55.558;-4.644;2023-05-07T15:50:34;4.13;;;1.50;;
64851;SDS011;56050;55.558;-4.644;2023-05-07T15:53:00;3.10;;;1.15;;
64851;SDS011;56050;55.558;-4.644;2023-05-07T15:55:25;2.95;;;1.08;;
64851;SDS011;56050;55.558;-4.644;2023-05-07T15:57:51;2.83;;;1.17;;
64851;SDS011;56050;55.558;-4.644;2023-05-07T16:00:19;2.72;;;0.85;;
64851;SDS011;56050;55.558;-4.644;2023-05-07T16:02:45;4.70;;;1.40;;
64851;SDS011;56050;55.558;-4.644;2023-05-07T16:05:10;3.22;;;1.55;;
64851;SDS011;56050;55.558;-4.644;2023-05-07T16:07:37;2.78;;;1.45;;
64851;SDS011;56050;55.558;-4.644;2023-05-07T16:10:03;3.97;;;1.55;;
64851;SDS011;56050;55.558;-4.644;2023-05-07T16:12:29;5.40;;;1.10;;
64851;SDS011;56050;55.558;-4.644;2023-05-07T16:14:55;3.80;;;1.33;;
64851;SDS011;56050;55.558;-4.644;2023-05-07T16:17:20;3.22;;;1.05;;
64851;SDS011;56050;55.558;-4.644;2023-05-07T16:19:46;5.00;;;1.17;;
64851;SDS011;56050;55.558;-4.644;2023-05-07T16:22:12;4.38;;;1.50;;
64851;SDS011;56050;55.558;-4.644;2023-05-07T16:24:37;4.72;;;1.00;;
64851;SDS011;56050;55.558;-4.644;2023-05-07T16:27:03;4.85;;;1.02;;
64851;SDS011;56050;55.558;-4.644;2023-05-07T16:29:30;3.35;;;1.27;;
64851;SDS011;56050;55.558;-4.644;2023-05-07T16:31:56;3.83;;;0.88;;
64851;SDS011;56050;55.558;-4.644;2023-05-07T16:34:21;3.17;;;1.30;;
64851;SDS011;56050;55.558;-4.644;2023-05-07T16:36:47;3.53;;;1.38;;
64851;SDS011;56050;55.558;-4.644;2023-05-07T16:39:12;2.78;;;1.33;;
64851;SDS011;56050;55.558;-4.644;2023-05-07T16:41:38;3.58;;;1.42;;
64851;SDS011;56050;55.558;-4.644;2023-05-07T16:44:03;3.70;;;1.45;;
64851;SDS011;56050;55.558;-4.644;2023-05-07T16:46:29;4.72;;;1.15;;
64851;SDS011;56050;55.558;-4.644;2023-05-07T16:48:55;3.90;;;1.13;;
64851;SDS011;56050;55.558;-4.644;2023-05-07T16:51:21;2.97;;;0.95;;
64851;SDS011;56050;55.558;-4.644;2023-05-07T16:53:48;5.63;;;1.33;;
64851;SDS011;56050;55.558;-4.644;2023-05-07T16:56:14;3.85;;;1.42;;
64851;SDS011;56050;55.558;-4.644;2023-05-07T16:58:40;3.92;;;0.80;;
64851;SDS011;56050;55.558;-4.644;2023-05-07T17:01:06;3.85;;;1.30;;
64851;SDS011;56050;55.558;-4.644;2023-05-07T17:03:34;3.53;;;1.08;;
64851;SDS011;56050;55.558;-4.644;2023-05-07T17:05:59;3.20;;;0.98;;
64851;SDS011;56050;55.558;-4.644;2023-05-07T17:08:25;4.35;;;0.88;;
64851;SDS011;56050;55.558;-4.644;2023-05-07T17:10:50;8.02;;;1.15;;
64851;SDS011;56050;55.558;-4.644;2023-05-07T17:13:16;5.03;;;1.27;;
64851;SDS011;56050;55.558;-4.644;2023-05-07T17:15:41;3.63;;;1.13;;
64851;SDS011;56050;55.558;-4.644;2023-05-07T17:18:11;2.97;;;0.75;;
64851;SDS011;56050;55.558;-4.644;2023-05-07T17:20:37;3.53;;;0.88;;
64851;SDS011;56050;55.558;-4.644;2023-05-07T17:23:04;2.58;;;1.23;;
64851;SDS011;56050;55.558;-4.644;2023-05-07T17:25:30;3.13;;;1.40;;
64851;SDS011;56050;55.558;-4.644;2023-05-07T17:27:56;2.60;;;1.33;;
64851;SDS011;56050;55.558;-4.644;2023-05-07T17:30:22;3.42;;;0.52;;
64851;SDS011;56050;55.558;-4.644;2023-05-07T17:32:47;2.47;;;0.75;;
64851;SDS011;56050;55.558;-4.644;2023-05-07T17:35:13;3.45;;;1.35;;
64851;SDS011;56050;55.558;-4.644;2023-05-07T17:37:38;1.88;;;0.60;;
64851;SDS011;56050;55.558;-4.644;2023-05-07T17:40:05;1.77;;;0.60;;
64851;SDS011;56050;55.558;-4.644;2023-05-07T17:42:31;2.42;;;0.90;;
64851;SDS011;56050;55.558;-4.644;2023-05-07T17:44:56;3.15;;;1.13;;
64851;SDS011;56050;55.558;-4.644;2023-05-07T17:47:22;4.40;;;1.38;;
64851;SDS011;56050;55.558;-4.644;2023-05-07T17:49:47;4.82;;;1.10;;
64851;SDS011;56050;55.558;-4.644;2023-05-07T17:52:13;3.00;;;0.63;;
64851;SDS011;56050;55.558;-4.644;2023-05-07T17:54:38;3.53;;;1.13;;
64851;SDS011;56050;55.558;-4.644;2023-05-07T17:57:04;2.40;;;0.80;;
64851;SDS011;56050;55.558;-4.644;2023-05-07T17:59:29;4.05;;;0.88;;
64851;SDS011;56050;55.558;-4.644;2023-05-07T18:01:54;2.83;;;0.98;;
64851;SDS011;56050;55.558;-4.644;2023-05-07T18:04:20;3.35;;;1.20;;
64851;SDS011;56050;55.558;-4.644;2023-05-07T18:06:46;4.80;;;1.77;;
64851;SDS011;56050;55.558;-4.644;2023-05-07T18:09:11;3.15;;;1.30;;
64851;SDS011;56050;55.558;-4.644;2023-05-07T18:11:37;5.80;;;1.33;;
64851;SDS011;56050;55.558;-4.644;2023-05-07T18:14:02;3.30;;;1.13;;
64851;SDS011;56050;55.558;-4.644;2023-05-07T18:16:28;2.90;;;1.20;;
64851;SDS011;56050;55.558;-4.644;2023-05-07T18:18:53;4.88;;;1.40;;
64851;SDS011;56050;55.558;-4.644;2023-05-07T18:21:19;3.42;;;1.05;;
64851;SDS011;56050;55.558;-4.644;2023-05-07T18:23:45;2.55;;;0.77;;
64851;SDS011;56050;55.558;-4.644;2023-05-07T18:26:13;3.83;;;1.60;;
64851;SDS011;56050;55.558;-4.644;2023-05-07T18:28:39;2.92;;;0.98;;
64851;SDS011;56050;55.558;-4.644;2023-05-07T18:31:04;3.72;;;1.30;;